createdAt,value
2022-11-13T00:02:07.510Z,14.61
2022-11-13T00:04:52.564Z,14.56
2022-11-13T00:07:37.678Z,14.73
2022-11-13T00:10:23.023Z,14.74
2022-11-13T00:13:07.933Z,14.78
2022-11-13T00:16:00.283Z,14.73
2022-11-13T00:18:46.787Z,14.84
2022-11-13T00:21:32.601Z,14.71
2022-11-13T00:24:17.540Z,14.40
2022-11-13T00:27:03.492Z,14.54
2022-11-13T00:29:48.583Z,14.71
2022-11-13T00:32:34.288Z,14.77
2022-11-13T00:35:19.190Z,14.87
2022-11-13T00:38:04.479Z,14.90
2022-11-13T00:40:49.695Z,14.96
2022-11-13T00:43:34.861Z,14.75
2022-11-13T00:46:20.057Z,14.48
2022-11-13T00:49:05.705Z,14.58
2022-11-13T00:51:50.367Z,14.58
2022-11-13T00:54:35.643Z,14.72
2022-11-13T00:57:20.632Z,14.60
2022-11-13T01:00:06.676Z,14.63
2022-11-13T01:02:52.189Z,14.67
2022-11-13T01:05:39.153Z,14.39
2022-11-13T01:08:23.907Z,14.47
2022-11-13T01:11:12.786Z,14.68
2022-11-13T01:13:58.119Z,14.77
2022-11-13T01:16:43.018Z,14.79
2022-11-13T01:19:28.830Z,14.59
2022-11-13T01:22:14.045Z,14.61
2022-11-13T01:24:59.015Z,14.71
2022-11-13T01:27:44.267Z,14.76
2022-11-13T01:30:29.295Z,14.87
2022-11-13T01:33:14.479Z,14.81
2022-11-13T01:36:13.051Z,14.65
2022-11-13T01:38:58.333Z,14.64
2022-11-13T01:41:43.660Z,14.47
2022-11-13T01:44:45.936Z,14.54
2022-11-13T01:47:31.391Z,14.73
2022-11-13T01:50:16.799Z,14.83
2022-11-13T01:53:01.870Z,14.97
2022-11-13T01:55:47.281Z,15.00
2022-11-13T01:58:32.675Z,14.94
2022-11-13T02:01:19.198Z,14.96
2022-11-13T02:04:04.862Z,15.05
2022-11-13T02:07:02.041Z,15.01
2022-11-13T02:09:54.545Z,15.07
2022-11-13T02:12:47.917Z,15.06
2022-11-13T02:15:34.461Z,14.82
2022-11-13T02:18:22.008Z,14.69
2022-11-13T02:21:16.165Z,14.72
2022-11-13T02:24:16.607Z,14.59
2022-11-13T02:27:05.987Z,14.63
2022-11-13T02:29:51.014Z,14.70
2022-11-13T02:32:41.865Z,14.81
2022-11-13T02:35:30.831Z,14.91
2022-11-13T02:38:16.142Z,14.95
2022-11-13T02:41:01.962Z,15.03
2022-11-13T02:43:47.456Z,15.06
2022-11-13T02:46:32.971Z,15.06
2022-11-13T02:49:18.279Z,15.04
2022-11-13T02:52:03.545Z,15.03
2022-11-13T02:54:48.904Z,14.90
2022-11-13T02:57:33.953Z,14.90
2022-11-13T03:00:19.030Z,14.86
2022-11-13T03:03:04.408Z,14.89
2022-11-13T03:05:49.860Z,14.84
2022-11-13T03:08:35.957Z,14.75
2022-11-13T03:11:22.197Z,14.68
2022-11-13T03:14:07.058Z,14.71
2022-11-13T03:16:52.640Z,14.76
2022-11-13T03:19:37.580Z,14.85
2022-11-13T03:22:23.037Z,14.79
2022-11-13T03:25:10.650Z,14.83
2022-11-13T03:27:56.137Z,14.80
2022-11-13T03:30:41.418Z,14.91
2022-11-13T03:33:26.768Z,14.92
2022-11-13T03:36:11.806Z,14.91
2022-11-13T03:38:57.060Z,14.85
2022-11-13T03:41:42.154Z,14.78
2022-11-13T03:44:26.926Z,14.80
2022-11-13T03:47:12.622Z,14.65
2022-11-13T03:49:57.554Z,14.55
2022-11-13T03:52:42.643Z,14.54
2022-11-13T03:55:27.984Z,14.67
2022-11-13T03:58:13.328Z,14.55
2022-11-13T04:00:58.594Z,14.67
2022-11-13T04:03:43.586Z,14.52
2022-11-13T04:06:28.815Z,14.62
2022-11-13T04:09:14.014Z,14.55
2022-11-13T04:11:59.219Z,14.63
2022-11-13T04:14:44.263Z,14.69
2022-11-13T04:17:29.505Z,14.74
2022-11-13T04:20:14.839Z,14.77
2022-11-13T04:22:59.980Z,14.73
2022-11-13T04:25:47.787Z,14.66
2022-11-13T04:28:33.257Z,14.62
2022-11-13T04:31:18.748Z,14.66
2022-11-13T04:34:04.015Z,14.69
2022-11-13T04:36:51.807Z,14.68
2022-11-13T04:39:36.890Z,14.64
2022-11-13T04:42:41.004Z,14.63
2022-11-13T04:45:26.903Z,14.58
2022-11-13T04:48:11.812Z,14.62
2022-11-13T04:50:57.414Z,14.60
2022-11-13T04:53:42.367Z,14.55
2022-11-13T04:56:27.845Z,14.44
2022-11-13T04:59:13.250Z,14.56
2022-11-13T05:01:58.065Z,14.63
2022-11-13T05:04:43.576Z,14.51
2022-11-13T05:07:29.069Z,14.59
2022-11-13T05:10:14.408Z,14.52
2022-11-13T05:12:59.668Z,14.39
2022-11-13T05:15:44.739Z,14.34
2022-11-13T05:18:31.356Z,14.29
2022-11-13T05:21:16.979Z,14.31
2022-11-13T05:24:03.721Z,14.28
2022-11-13T05:26:49.354Z,14.38
2022-11-13T05:29:34.142Z,14.36
2022-11-13T05:32:19.492Z,14.37
2022-11-13T05:35:04.822Z,14.32
2022-11-13T05:37:49.746Z,14.26
2022-11-13T05:40:34.835Z,14.26
2022-11-13T05:43:20.135Z,14.19
2022-11-13T05:46:09.734Z,14.22
2022-11-13T05:49:00.341Z,14.18
2022-11-13T05:51:45.521Z,14.14
2022-11-13T05:54:31.377Z,14.08
2022-11-13T05:57:17.036Z,13.96
2022-11-13T06:00:03.039Z,13.99
2022-11-13T06:02:48.175Z,13.99
2022-11-13T06:05:36.938Z,13.79
2022-11-13T06:08:22.304Z,13.95
2022-11-13T06:11:12.921Z,14.09
2022-11-13T06:13:59.508Z,13.87
2022-11-13T06:16:46.894Z,13.90
2022-11-13T06:19:31.996Z,13.92
2022-11-13T06:22:17.196Z,13.82
2022-11-13T06:25:02.780Z,13.74
2022-11-13T06:27:47.752Z,13.59
2022-11-13T06:30:32.882Z,13.65
2022-11-13T06:33:18.051Z,13.67
2022-11-13T06:36:09.682Z,13.70
2022-11-13T06:38:55.279Z,13.75
2022-11-13T06:41:40.352Z,13.81
2022-11-13T06:44:25.622Z,13.91
2022-11-13T06:47:11.009Z,13.87
2022-11-13T06:49:56.029Z,13.93
2022-11-13T06:52:41.216Z,14.01
2022-11-13T06:55:26.464Z,14.04
2022-11-13T06:58:13.061Z,14.12
2022-11-13T07:00:58.105Z,14.16
2022-11-13T07:03:43.708Z,14.14
2022-11-13T07:06:28.866Z,14.16
2022-11-13T07:09:14.018Z,14.15
2022-11-13T07:11:59.001Z,14.18
2022-11-13T07:14:44.488Z,14.19
2022-11-13T07:17:29.492Z,14.07
2022-11-13T07:20:14.830Z,14.03
2022-11-13T07:23:02.847Z,13.97
2022-11-13T07:25:48.039Z,13.88
2022-11-13T07:31:53.753Z,13.85
2022-11-13T07:34:39.391Z,13.95
2022-11-13T07:37:24.977Z,14.04
2022-11-13T07:40:11.657Z,14.06
2022-11-13T07:43:01.612Z,14.15
2022-11-13T07:45:47.163Z,13.92
2022-11-13T07:48:37.588Z,13.92
2022-11-13T07:51:34.795Z,13.81
2022-11-13T07:54:21.220Z,13.81
2022-11-13T07:57:06.045Z,13.78
2022-11-13T07:59:50.876Z,13.90
2022-11-13T08:02:36.219Z,13.78
2022-11-13T08:05:21.733Z,13.69
2022-11-13T08:08:10.523Z,13.70
2022-11-13T08:10:55.889Z,13.76
2022-11-13T08:13:41.101Z,13.65
2022-11-13T08:16:27.274Z,13.68
2022-11-13T08:19:12.781Z,13.57
2022-11-13T08:21:58.412Z,13.73
2022-11-13T08:24:43.969Z,13.73
2022-11-13T08:27:28.954Z,13.70
2022-11-13T08:30:14.847Z,13.55
2022-11-13T08:33:01.699Z,13.74
2022-11-13T08:35:59.388Z,13.61
2022-11-13T08:38:44.330Z,13.52
2022-11-13T08:41:29.754Z,13.52
2022-11-13T08:44:15.267Z,13.73
2022-11-13T08:47:00.352Z,13.64
2022-11-13T08:49:45.392Z,13.61
2022-11-13T08:52:30.320Z,13.53
2022-11-13T08:55:16.063Z,13.38
2022-11-13T08:58:03.187Z,13.33
2022-11-13T09:00:48.169Z,13.51
2022-11-13T09:03:35.499Z,13.50
2022-11-13T09:06:20.839Z,13.54
2022-11-13T09:09:06.442Z,13.59
2022-11-13T09:11:51.527Z,13.63
2022-11-13T09:14:36.882Z,13.93
2022-11-13T09:17:21.941Z,13.89
2022-11-13T09:20:11.302Z,13.39
2022-11-13T09:23:01.902Z,13.42
2022-11-13T09:25:47.472Z,13.44
2022-11-13T09:28:32.821Z,13.37
2022-11-13T09:31:17.946Z,13.39
2022-11-13T09:34:03.599Z,13.58
2022-11-13T09:36:48.933Z,13.69
2022-11-13T09:39:34.340Z,13.65
2022-11-13T09:42:24.527Z,13.70
2022-11-13T09:45:15.144Z,13.54
2022-11-13T09:48:25.413Z,13.48
2022-11-13T09:51:22.616Z,13.51
2022-11-13T09:54:14.126Z,13.22
2022-11-13T09:57:26.070Z,13.29
2022-11-13T10:00:15.570Z,13.34
2022-11-13T10:03:54.251Z,13.09
2022-11-13T10:06:56.385Z,13.05
2022-11-13T10:10:17.059Z,12.85
2022-11-13T10:13:04.273Z,12.63
2022-11-13T10:15:54.227Z,12.73
2022-11-13T10:18:41.040Z,12.74
2022-11-13T10:21:46.193Z,12.89
2022-11-13T10:24:40.134Z,12.96
2022-11-13T10:27:27.934Z,13.08
2022-11-13T10:30:16.494Z,12.78
2022-11-13T10:33:05.784Z,12.50
2022-11-13T10:36:34.117Z,12.37
2022-11-13T10:39:19.867Z,12.47
2022-11-13T10:42:19.110Z,12.74
2022-11-13T10:45:13.609Z,12.80
2022-11-13T10:48:04.771Z,12.33
2022-11-13T10:51:10.445Z,12.17
2022-11-13T10:53:58.471Z,12.47
2022-11-13T10:56:44.806Z,12.77
2022-11-13T10:59:43.063Z,12.48
2022-11-13T11:02:28.709Z,12.45
2022-11-13T11:05:23.864Z,12.49
2022-11-13T11:08:10.683Z,12.59
2022-11-13T11:11:21.161Z,12.47
2022-11-13T11:14:28.012Z,12.50
2022-11-13T11:17:16.359Z,12.41
2022-11-13T11:20:38.154Z,12.15
2022-11-13T11:23:32.784Z,12.25
2022-11-13T11:26:34.161Z,12.15
2022-11-13T11:29:37.094Z,12.16
2022-11-13T11:32:32.210Z,12.37
2022-11-13T11:35:36.866Z,12.33
2022-11-13T11:38:32.903Z,12.31
2022-11-13T11:41:31.956Z,12.26
2022-11-13T11:44:28.849Z,12.11
2022-11-13T11:47:17.494Z,11.95
2022-11-13T11:50:11.634Z,12.05
2022-11-13T11:53:12.894Z,12.07
2022-11-13T11:56:07.109Z,12.07
2022-11-13T11:59:08.734Z,12.09
2022-11-13T12:02:31.789Z,12.30
2022-11-13T12:05:44.812Z,12.14
2022-11-13T12:08:47.516Z,11.90
2022-11-13T12:11:39.380Z,12.10
2022-11-13T12:14:52.559Z,12.14
2022-11-13T12:18:15.569Z,12.04
2022-11-13T12:21:22.856Z,11.96
2022-11-13T12:24:22.453Z,12.07
2022-11-13T12:27:26.224Z,12.20
2022-11-13T12:30:19.740Z,12.36
2022-11-13T12:33:23.472Z,12.03
2022-11-13T12:36:12.395Z,12.04
2022-11-13T12:38:58.285Z,12.23
2022-11-13T12:42:26.107Z,12.13
2022-11-13T12:45:30.471Z,12.13
2022-11-13T12:48:20.848Z,11.98
2022-11-13T12:51:13.130Z,11.98
2022-11-13T12:53:58.602Z,12.03
2022-11-13T12:56:44.349Z,11.96
2022-11-13T12:59:33.687Z,12.11
2022-11-13T13:02:32.253Z,11.98
2022-11-13T13:06:04.573Z,12.04
2022-11-13T13:08:57.071Z,12.07
2022-11-13T13:11:51.642Z,12.14
2022-11-13T13:14:52.403Z,12.04
2022-11-13T13:17:40.430Z,12.26
2022-11-13T13:20:36.313Z,12.23
2022-11-13T13:23:32.767Z,12.03
2022-11-13T13:26:20.876Z,12.16
2022-11-13T13:29:20.940Z,12.16
2022-11-13T13:32:20.638Z,12.18
2022-11-13T13:35:21.334Z,12.03
2022-11-13T13:38:17.603Z,12.11
2022-11-13T13:41:24.231Z,12.05
2022-11-13T13:44:32.998Z,12.18
2022-11-13T13:47:29.956Z,12.33
2022-11-13T13:50:20.046Z,12.25
2022-11-13T13:53:08.186Z,12.04
2022-11-13T13:55:55.947Z,12.07
2022-11-13T13:58:42.298Z,12.08
2022-11-13T14:01:33.016Z,12.08
2022-11-13T14:04:22.880Z,11.91
2022-11-13T14:07:28.167Z,11.79
2022-11-13T14:10:19.987Z,11.63
2022-11-13T14:13:06.492Z,11.84
2022-11-13T14:16:01.687Z,11.69
2022-11-13T14:18:47.306Z,11.75
2022-11-13T14:21:33.163Z,11.77
2022-11-13T14:24:43.390Z,11.75
2022-11-13T14:27:30.634Z,11.87
2022-11-13T14:30:25.440Z,11.82
2022-11-13T14:33:16.909Z,11.64
2022-11-13T14:36:03.199Z,11.66
2022-11-13T14:38:52.057Z,11.85
2022-11-13T14:41:52.892Z,11.88
2022-11-13T14:44:37.979Z,12.07
2022-11-13T14:47:26.583Z,12.08
2022-11-13T14:50:27.495Z,11.92
2022-11-13T14:53:32.918Z,11.64
2022-11-13T14:56:18.452Z,11.61
2022-11-13T14:59:19.528Z,11.58
2022-11-13T15:02:06.391Z,11.63
2022-11-13T15:04:52.398Z,11.48
2022-11-13T15:07:41.948Z,11.47
2022-11-13T15:10:29.561Z,11.41
2022-11-13T15:13:18.086Z,11.38
2022-11-13T15:16:04.953Z,11.32
2022-11-13T15:18:55.288Z,11.37
2022-11-13T15:21:51.136Z,11.49
2022-11-13T15:24:49.859Z,11.47
2022-11-13T15:27:43.048Z,11.27
2022-11-13T15:30:29.664Z,11.23
2022-11-13T15:33:16.250Z,11.20
2022-11-13T15:36:01.670Z,11.42
2022-11-13T15:38:48.352Z,11.40
2022-11-13T15:41:36.556Z,11.15
2022-11-13T15:44:25.075Z,11.06
2022-11-13T15:47:32.928Z,11.09
2022-11-13T15:50:21.005Z,11.12
2022-11-13T15:53:11.849Z,11.01
2022-11-13T15:56:03.934Z,11.00
2022-11-13T15:58:53.121Z,10.98
2022-11-13T16:01:42.813Z,11.10
2022-11-13T16:04:54.535Z,11.14
2022-11-13T16:07:42.297Z,11.08
2022-11-13T16:10:31.849Z,11.13
2022-11-13T16:13:19.309Z,11.16
2022-11-13T16:16:15.819Z,11.14
2022-11-13T16:19:04.129Z,10.95
2022-11-13T16:21:52.221Z,10.96
2022-11-13T16:24:39.454Z,10.97
2022-11-13T16:27:29.966Z,11.00
2022-11-13T16:30:22.588Z,11.12
2022-11-13T16:33:10.118Z,11.14
2022-11-13T16:35:55.980Z,10.88
2022-11-13T16:38:43.149Z,10.81
2022-11-13T16:41:31.234Z,10.95
2022-11-13T16:44:18.114Z,10.82
2022-11-13T16:47:05.635Z,10.75
2022-11-13T16:49:52.375Z,10.90
2022-11-13T16:52:39.212Z,10.84
2022-11-13T16:55:26.673Z,10.89
2022-11-13T16:58:13.977Z,10.91
2022-11-13T17:01:00.825Z,10.96
2022-11-13T17:03:50.418Z,10.89
2022-11-13T17:06:39.772Z,10.71
2022-11-13T17:09:26.954Z,10.79
2022-11-13T17:12:16.151Z,10.80
2022-11-13T17:15:04.685Z,10.89
2022-11-13T17:17:50.930Z,10.90
2022-11-13T17:20:38.335Z,10.74
2022-11-13T17:23:26.143Z,10.85
2022-11-13T17:26:13.443Z,10.85
2022-11-13T17:29:02.807Z,10.74
2022-11-13T17:31:48.859Z,10.99
2022-11-13T17:34:36.686Z,11.02
2022-11-13T17:37:26.845Z,11.02
2022-11-13T17:40:16.070Z,10.92
2022-11-13T17:43:02.973Z,10.89
2022-11-13T17:45:50.656Z,10.73
2022-11-13T17:48:40.686Z,10.78
2022-11-13T17:51:35.732Z,10.65
2022-11-13T17:54:23.300Z,10.64
2022-11-13T17:57:14.487Z,10.87
2022-11-13T18:00:03.934Z,10.88
2022-11-13T18:02:50.462Z,10.88
2022-11-13T18:05:40.656Z,10.88
2022-11-13T18:08:28.263Z,10.73
2022-11-13T18:11:19.345Z,10.76
2022-11-13T18:14:07.465Z,10.51
2022-11-13T18:16:53.821Z,10.46
2022-11-13T18:19:41.186Z,10.39
2022-11-13T18:22:28.568Z,10.32
2022-11-13T18:25:19.018Z,10.13
2022-11-13T18:28:06.781Z,10.15
2022-11-13T18:30:56.603Z,10.09
2022-11-13T18:33:43.499Z,10.14
2022-11-13T18:36:34.867Z,10.20
2022-11-13T18:39:22.550Z,10.13
2022-11-13T18:42:08.299Z,10.20
2022-11-13T18:44:54.979Z,10.22
2022-11-13T18:47:41.643Z,10.28
2022-11-13T18:50:29.595Z,10.13
2022-11-13T18:53:15.328Z,10.12
2022-11-13T18:56:04.244Z,10.08
2022-11-13T18:58:52.254Z,10.26
2022-11-13T19:01:39.487Z,10.04
2022-11-13T19:04:25.548Z,9.91
2022-11-13T19:07:14.731Z,9.97
2022-11-13T19:10:02.980Z,9.99
2022-11-13T19:12:51.116Z,9.99
2022-11-13T19:15:39.688Z,10.02
2022-11-13T19:18:33.938Z,10.00
2022-11-13T19:21:23.837Z,9.94
2022-11-13T19:24:15.884Z,9.94
2022-11-13T19:27:03.722Z,10.05
2022-11-13T19:29:56.944Z,10.19
2022-11-13T19:32:46.015Z,10.10
2022-11-13T19:35:33.644Z,9.93
2022-11-13T19:38:22.195Z,10.05
2022-11-13T19:41:10.815Z,10.28
2022-11-13T19:43:59.877Z,10.22
2022-11-13T19:46:47.668Z,10.28
2022-11-13T19:49:36.843Z,10.10
2022-11-13T19:52:26.964Z,9.88
2022-11-13T19:55:15.875Z,9.84
2022-11-13T19:58:04.327Z,9.92
2022-11-13T20:00:53.769Z,9.84
2022-11-13T20:03:41.068Z,9.79
2022-11-13T20:06:32.223Z,9.81
2022-11-13T20:09:19.752Z,9.90
2022-11-13T20:12:06.588Z,10.02
2022-11-13T20:14:53.882Z,10.08
2022-11-13T20:17:39.605Z,9.73
2022-11-13T20:20:24.991Z,9.67
2022-11-13T20:23:10.271Z,9.46
2022-11-13T20:25:59.425Z,9.27
2022-11-13T20:28:44.908Z,9.15
2022-11-13T20:31:30.659Z,9.05
2022-11-13T20:34:16.226Z,8.99
2022-11-13T20:37:02.726Z,8.93
2022-11-13T20:39:51.537Z,8.87
2022-11-13T20:42:37.497Z,8.78
2022-11-13T20:45:23.404Z,8.66
2022-11-13T20:48:08.961Z,8.62
2022-11-13T20:50:56.707Z,8.58
2022-11-13T20:53:42.916Z,8.56
2022-11-13T20:56:28.688Z,8.47
2022-11-13T20:59:14.361Z,8.44
2022-11-13T21:01:59.568Z,8.36
2022-11-13T21:04:45.206Z,8.21
2022-11-13T21:07:30.790Z,8.03
2022-11-13T21:10:16.865Z,7.96
2022-11-13T21:13:05.872Z,7.92
2022-11-13T21:15:51.892Z,7.81
2022-11-13T21:18:38.002Z,7.76
2022-11-13T21:21:25.872Z,7.72
2022-11-13T21:24:11.655Z,7.73
2022-11-13T21:26:57.222Z,7.73
2022-11-13T21:29:46.019Z,7.69
2022-11-13T21:32:31.825Z,7.69
2022-11-13T21:35:22.339Z,7.65
2022-11-13T21:38:10.619Z,7.66
2022-11-13T21:41:19.708Z,7.63
2022-11-13T21:44:08.348Z,7.64
2022-11-13T21:46:53.803Z,7.68
2022-11-13T21:49:39.776Z,7.65
2022-11-13T21:52:26.446Z,7.62
2022-11-13T21:55:12.385Z,7.67
2022-11-13T21:58:01.251Z,7.74
2022-11-13T22:00:46.541Z,7.77
2022-11-13T22:03:33.392Z,7.76
2022-11-13T22:06:24.961Z,7.75
2022-11-13T22:09:15.800Z,7.72
2022-11-13T22:12:00.981Z,7.73
2022-11-13T22:14:46.104Z,7.74
2022-11-13T22:17:32.276Z,7.85
2022-11-13T22:20:17.528Z,7.86
2022-11-13T22:23:05.094Z,7.86
2022-11-13T22:25:53.485Z,7.93
2022-11-13T22:28:44.352Z,7.87
2022-11-13T22:31:31.999Z,7.90
2022-11-13T22:34:17.808Z,7.99
2022-11-13T22:37:03.930Z,8.05
2022-11-13T22:39:49.335Z,8.15
2022-11-13T22:42:34.647Z,8.26
2022-11-13T22:45:24.467Z,8.23
2022-11-13T22:48:10.806Z,8.31
2022-11-13T22:51:01.189Z,8.33
2022-11-13T22:53:58.575Z,8.27
2022-11-13T22:56:44.595Z,8.23
2022-11-13T22:59:30.262Z,8.33
2022-11-13T23:02:15.475Z,8.34
2022-11-13T23:05:00.792Z,8.35
2022-11-13T23:07:46.173Z,8.24
2022-11-13T23:10:31.639Z,8.27
2022-11-13T23:13:16.931Z,8.29
2022-11-13T23:16:02.210Z,8.25
2022-11-13T23:18:48.640Z,8.25
2022-11-13T23:21:34.034Z,8.27
2022-11-13T23:24:19.114Z,8.32
2022-11-13T23:27:04.139Z,8.31
2022-11-13T23:29:50.407Z,8.31
2022-11-13T23:32:35.662Z,8.30
2022-11-13T23:35:21.186Z,8.26
2022-11-13T23:38:06.660Z,8.24
2022-11-13T23:40:54.026Z,8.34
2022-11-13T23:44:08.371Z,8.33
2022-11-13T23:46:44.903Z,8.21
2022-11-13T23:49:30.293Z,8.23
2022-11-13T23:52:15.924Z,8.20
2022-11-13T23:55:01.461Z,8.16
2022-11-13T23:57:47.573Z,8.13
